createdAt,value
2022-11-13T00:00:37.951Z,99848.13
2022-11-13T00:03:04.420Z,99862.88
2022-11-13T00:05:30.805Z,99868.44
2022-11-13T00:07:57.213Z,99860.03
2022-11-13T00:10:23.685Z,99856.22
2022-11-13T00:12:50.122Z,99858.28
2022-11-13T00:15:16.577Z,99850.16
2022-11-13T00:17:43.009Z,99847.31
2022-11-13T00:20:09.711Z,99849.06
2022-11-13T00:22:36.113Z,99848.50
2022-11-13T00:25:02.579Z,99849.19
2022-11-13T00:27:31.146Z,99848.50
2022-11-13T00:29:57.794Z,99847.84
2022-11-13T00:32:24.261Z,99846.19
2022-11-13T00:34:50.669Z,99841.06
2022-11-13T00:37:17.061Z,99840.66
2022-11-13T00:39:43.590Z,99854.63
2022-11-13T00:42:10.530Z,99850.28
2022-11-13T00:44:37.221Z,99840.66
2022-11-13T00:47:03.817Z,99848.38
2022-11-13T00:49:30.209Z,99847.44
2022-11-13T00:51:56.631Z,99840.53
2022-11-13T00:54:23.111Z,99826.69
2022-11-13T00:56:49.497Z,99833.34
2022-11-13T00:59:15.919Z,99826.03
2022-11-13T01:01:42.378Z,99824.00
2022-11-13T01:04:08.909Z,99832.81
2022-11-13T01:06:35.326Z,99839.97
2022-11-13T01:09:01.783Z,99834.53
2022-11-13T01:11:30.624Z,99825.75
2022-11-13T01:13:57.403Z,99828.19
2022-11-13T01:16:26.208Z,99825.09
2022-11-13T01:18:56.745Z,99820.19
2022-11-13T01:21:25.258Z,99819.91
2022-11-13T01:23:52.214Z,99817.47
2022-11-13T01:26:29.939Z,99808.00
2022-11-13T01:28:58.814Z,99811.22
2022-11-13T01:31:28.508Z,99807.03
2022-11-13T01:33:55.220Z,99805.69
2022-11-13T01:36:25.302Z,99811.34
2022-11-13T01:38:52.443Z,99798.72
2022-11-13T01:41:30.829Z,99797.38
2022-11-13T01:43:58.246Z,99793.06
2022-11-13T01:46:41.582Z,99782.75
2022-11-13T01:49:07.905Z,99778.28
2022-11-13T01:51:37.868Z,99773.50
2022-11-13T01:54:08.998Z,99768.22
2022-11-13T01:56:36.068Z,99763.59
2022-11-13T01:59:09.041Z,99761.03
2022-11-13T02:01:35.722Z,99750.75
2022-11-13T02:04:02.455Z,99751.13
2022-11-13T02:06:36.438Z,99748.00
2022-11-13T02:09:03.574Z,99745.00
2022-11-13T02:11:30.062Z,99748.28
2022-11-13T02:13:57.303Z,99742.59
2022-11-13T02:16:23.834Z,99736.50
2022-11-13T02:18:51.329Z,99732.69
2022-11-13T02:21:17.726Z,99735.66
2022-11-13T02:23:53.585Z,99737.28
2022-11-13T02:26:23.719Z,99735.38
2022-11-13T02:28:50.214Z,99727.09
2022-11-13T02:31:16.701Z,99723.28
2022-11-13T02:33:43.271Z,99726.00
2022-11-13T02:36:11.962Z,99708.75
2022-11-13T02:38:41.134Z,99712.28
2022-11-13T02:41:07.660Z,99717.13
2022-11-13T02:43:34.393Z,99704.03
2022-11-13T02:46:00.793Z,99705.53
2022-11-13T02:48:27.757Z,99701.88
2022-11-13T02:50:54.489Z,99701.88
2022-11-13T02:53:21.105Z,99704.69
2022-11-13T02:55:47.550Z,99703.78
2022-11-13T02:58:14.072Z,99709.72
2022-11-13T03:00:40.504Z,99698.63
2022-11-13T03:03:06.948Z,99695.38
2022-11-13T03:05:33.336Z,99698.72
2022-11-13T03:07:59.745Z,99695.19
2022-11-13T03:10:26.177Z,99691.94
2022-11-13T03:12:52.591Z,99690.44
2022-11-13T03:15:19.138Z,99691.31
2022-11-13T03:17:45.590Z,99687.53
2022-11-13T03:20:12.021Z,99678.91
2022-11-13T03:22:38.471Z,99681.91
2022-11-13T03:25:10.184Z,99673.13
2022-11-13T03:27:37.486Z,99679.34
2022-11-13T03:30:05.436Z,99674.59
2022-11-13T03:32:32.013Z,99666.44
2022-11-13T03:34:58.419Z,99672.91
2022-11-13T03:37:24.859Z,99676.19
2022-11-13T03:39:51.291Z,99666.47
2022-11-13T03:42:17.685Z,99663.88
2022-11-13T03:44:44.116Z,99666.72
2022-11-13T03:47:10.554Z,99666.97
2022-11-13T03:49:36.988Z,99666.69
2022-11-13T03:52:03.637Z,99663.06
2022-11-13T03:54:30.076Z,99658.22
2022-11-13T03:56:56.522Z,99658.34
2022-11-13T03:59:23.027Z,99654.97
2022-11-13T04:01:49.516Z,99651.03
2022-11-13T04:04:16.169Z,99653.59
2022-11-13T04:06:42.709Z,99648.28
2022-11-13T04:09:09.198Z,99657.03
2022-11-13T04:11:35.650Z,99650.84
2022-11-13T04:14:02.173Z,99648.97
2022-11-13T04:16:28.644Z,99654.47
2022-11-13T04:18:55.102Z,99656.34
2022-11-13T04:21:21.622Z,99648.91
2022-11-13T04:23:48.113Z,99645.00
2022-11-13T04:26:14.572Z,99645.97
2022-11-13T04:28:40.966Z,99641.88
2022-11-13T04:31:07.390Z,99637.91
2022-11-13T04:33:33.782Z,99634.56
2022-11-13T04:36:00.180Z,99631.19
2022-11-13T04:38:27.091Z,99624.22
2022-11-13T04:41:13.812Z,99623.28
2022-11-13T04:43:40.229Z,99622.47
2022-11-13T04:46:06.682Z,99633.31
2022-11-13T04:48:33.489Z,99627.75
2022-11-13T04:50:59.931Z,99626.34
2022-11-13T04:53:26.695Z,99621.72
2022-11-13T04:55:53.550Z,99629.69
2022-11-13T04:58:19.995Z,99627.50
2022-11-13T05:00:46.513Z,99623.06
2022-11-13T05:03:12.954Z,99625.88
2022-11-13T05:05:39.366Z,99625.88
2022-11-13T05:08:05.793Z,99629.06
2022-11-13T05:10:32.216Z,99622.78
2022-11-13T05:12:58.698Z,99618.78
2022-11-13T05:15:25.205Z,99612.78
2022-11-13T05:17:51.622Z,99614.41
2022-11-13T05:20:18.089Z,99609.00
2022-11-13T05:22:44.481Z,99613.78
2022-11-13T05:25:10.873Z,99602.16
2022-11-13T05:27:37.361Z,99601.66
2022-11-13T05:30:04.673Z,99599.63
2022-11-13T05:32:32.294Z,99597.56
2022-11-13T05:34:58.703Z,99595.81
2022-11-13T05:37:25.120Z,99594.75
2022-11-13T05:39:51.537Z,99606.03
2022-11-13T05:42:17.946Z,99601.59
2022-11-13T05:44:44.334Z,99594.59
2022-11-13T05:47:18.854Z,99595.41
2022-11-13T05:49:45.268Z,99591.59
2022-11-13T05:52:11.658Z,99588.69
2022-11-13T05:54:38.644Z,99572.44
2022-11-13T05:57:05.072Z,99569.94
2022-11-13T05:59:31.496Z,99567.88
2022-11-13T06:01:58.063Z,99570.78
2022-11-13T06:59:00.581Z,99559.84
2022-11-13T07:01:27.394Z,99544.00
2022-11-13T07:03:53.953Z,99546.31
2022-11-13T07:06:23.239Z,99543.84
2022-11-13T07:08:50.390Z,99551.53
2022-11-13T07:11:18.948Z,99561.81
2022-11-13T07:13:45.861Z,99549.22
2022-11-13T07:16:17.331Z,99537.22
2022-11-13T07:18:51.861Z,99535.47
2022-11-13T07:21:18.860Z,99541.84
2022-11-13T07:23:48.346Z,99550.41
2022-11-13T07:26:14.819Z,99549.50
2022-11-13T07:28:41.397Z,99537.31
2022-11-13T07:31:09.334Z,99521.81
2022-11-13T07:33:35.784Z,99521.66
2022-11-13T07:36:02.333Z,99519.94
2022-11-13T07:38:29.086Z,99515.78
2022-11-13T07:40:58.836Z,99513.50
2022-11-13T07:43:25.288Z,99507.34
2022-11-13T07:45:54.697Z,99518.06
2022-11-13T07:48:22.719Z,99517.22
2022-11-13T07:50:49.306Z,99520.63
2022-11-13T07:53:16.588Z,99517.78
2022-11-13T07:55:43.098Z,99506.31
2022-11-13T07:58:09.941Z,99503.19
2022-11-13T08:00:36.602Z,99494.97
2022-11-13T08:03:12.624Z,99490.25
2022-11-13T08:05:39.827Z,99499.97
2022-11-13T08:08:07.040Z,99493.25
2022-11-13T08:10:33.776Z,99490.16
2022-11-13T08:13:06.424Z,99490.97
2022-11-13T08:15:33.666Z,99488.53
2022-11-13T08:18:01.825Z,99490.16
2022-11-13T08:20:29.693Z,99486.50
2022-11-13T08:22:58.149Z,99484.66
2022-11-13T08:25:24.810Z,99475.84
2022-11-13T08:27:53.758Z,99465.72
2022-11-13T08:30:20.917Z,99458.66
2022-11-13T08:32:48.371Z,99462.44
2022-11-13T08:35:19.134Z,99447.41
2022-11-13T08:37:46.941Z,99454.03
2022-11-13T08:40:13.583Z,99450.28
2022-11-13T08:42:40.086Z,99444.59
2022-11-13T08:45:07.164Z,99448.13
2022-11-13T08:47:33.574Z,99442.72
2022-11-13T08:49:59.988Z,99441.34
2022-11-13T08:52:26.449Z,99440.69
2022-11-13T08:54:52.954Z,99432.44
2022-11-13T08:57:19.345Z,99429.75
2022-11-13T08:59:45.774Z,99416.47
2022-11-13T09:02:14.645Z,99405.94
2022-11-13T09:04:41.889Z,99403.38
2022-11-13T09:07:08.432Z,99400.81
2022-11-13T09:09:34.931Z,99395.13
2022-11-13T09:12:01.416Z,99397.41
2022-11-13T09:14:28.124Z,99391.47
2022-11-13T09:16:54.560Z,99378.88
2022-11-13T09:19:20.971Z,99375.63
2022-11-13T09:21:47.358Z,99376.38
2022-11-13T09:24:13.824Z,99367.75
2022-11-13T09:26:40.315Z,99356.31
2022-11-13T09:29:06.802Z,99349.41
2022-11-13T09:31:33.248Z,99355.16
2022-11-13T09:33:59.688Z,99345.41
2022-11-13T09:36:26.114Z,99346.03
2022-11-13T09:38:52.547Z,99356.84
2022-11-13T09:41:26.130Z,99358.19
2022-11-13T09:43:59.523Z,99375.19
2022-11-13T09:46:43.901Z,99381.91
2022-11-13T09:49:21.993Z,99375.06
2022-11-13T09:51:53.868Z,99367.44
2022-11-13T09:54:20.620Z,99371.41
2022-11-13T09:57:14.771Z,99360.44
2022-11-13T09:59:54.612Z,99363.91
2022-11-13T10:02:32.435Z,99353.53
2022-11-13T10:05:29.949Z,99362.50
2022-11-13T10:08:05.454Z,99362.69
2022-11-13T10:11:01.924Z,99360.47
2022-11-13T10:13:38.741Z,99356.72
2022-11-13T10:16:26.324Z,99364.84
2022-11-13T10:19:00.485Z,99353.66
2022-11-13T10:21:33.309Z,99355.31
2022-11-13T10:24:04.786Z,99352.63
2022-11-13T10:26:31.993Z,99340.41
2022-11-13T10:29:09.929Z,99339.16
2022-11-13T10:31:48.835Z,99342.78
2022-11-13T10:34:17.046Z,99329.56
2022-11-13T10:37:27.153Z,99332.66
2022-11-13T10:39:53.560Z,99338.34
2022-11-13T10:42:28.764Z,99343.81
2022-11-13T10:44:58.477Z,99337.38
2022-11-13T10:47:57.298Z,99343.19
2022-11-13T10:50:25.174Z,99316.50
2022-11-13T10:52:54.228Z,99317.94
2022-11-13T10:55:25.604Z,99319.91
2022-11-13T10:57:57.521Z,99304.03
2022-11-13T11:00:35.969Z,99296.03
2022-11-13T11:03:02.542Z,99297.63
2022-11-13T11:05:29.229Z,99292.56
2022-11-13T11:07:57.359Z,99287.81
2022-11-13T11:10:32.985Z,99280.81
2022-11-13T11:13:22.292Z,99277.34
2022-11-13T11:15:56.941Z,99257.06
2022-11-13T11:18:38.179Z,99256.41
2022-11-13T11:21:16.103Z,99240.66
2022-11-13T11:24:06.340Z,99225.66
2022-11-13T11:26:40.811Z,99216.03
2022-11-13T11:29:18.721Z,99209.88
2022-11-13T11:31:56.408Z,99222.66
2022-11-13T11:34:35.237Z,99229.81
2022-11-13T11:37:07.901Z,99222.31
2022-11-13T11:40:07.082Z,99224.53
2022-11-13T11:42:33.514Z,99213.78
2022-11-13T11:45:24.273Z,99210.09
2022-11-13T11:47:50.942Z,99205.00
2022-11-13T11:50:49.893Z,99205.06
2022-11-13T11:53:26.223Z,99201.13
2022-11-13T11:56:08.328Z,99192.88
2022-11-13T11:59:13.294Z,99179.41
2022-11-13T12:02:01.766Z,99169.41
2022-11-13T12:04:55.845Z,99151.97
2022-11-13T12:07:46.931Z,99144.09
2022-11-13T12:10:19.335Z,99150.69
2022-11-13T12:13:04.634Z,99139.38
2022-11-13T12:15:52.101Z,99136.63
2022-11-13T12:18:27.582Z,99136.09
2022-11-13T12:21:15.982Z,99124.91
2022-11-13T12:24:01.603Z,99113.88
2022-11-13T12:26:50.291Z,99118.50
2022-11-13T12:29:56.318Z,99119.44
2022-11-13T12:32:41.546Z,99115.63
2022-11-13T12:35:20.269Z,99107.38
2022-11-13T12:37:52.407Z,99104.53
2022-11-13T12:40:18.782Z,99101.06
2022-11-13T12:43:02.954Z,99106.84
2022-11-13T12:45:38.713Z,99107.19
2022-11-13T12:48:14.372Z,99105.81
2022-11-13T12:50:40.935Z,99094.09
2022-11-13T12:53:10.380Z,99090.31
2022-11-13T12:55:39.385Z,99087.28
2022-11-13T12:58:28.414Z,99085.50
2022-11-13T13:01:01.482Z,99082.88
2022-11-13T13:03:40.593Z,99080.94
2022-11-13T13:06:16.078Z,99074.69
2022-11-13T13:09:03.999Z,99062.78
2022-11-13T13:11:42.176Z,99071.50
2022-11-13T13:14:33.587Z,99057.72
2022-11-13T13:17:26.526Z,99057.44
2022-11-13T13:20:01.294Z,99054.16
2022-11-13T13:22:31.485Z,99055.34
2022-11-13T13:25:10.578Z,99055.38
2022-11-13T13:27:40.027Z,99057.19
2022-11-13T13:30:20.039Z,99050.31
2022-11-13T13:33:03.720Z,99052.53
2022-11-13T13:35:42.849Z,99040.50
2022-11-13T13:38:23.900Z,99033.47
2022-11-13T13:41:18.429Z,99033.22
2022-11-13T13:43:47.785Z,99028.31
2022-11-13T13:46:18.243Z,99028.81
2022-11-13T13:48:47.649Z,99036.47
2022-11-13T13:51:23.210Z,99037.50
2022-11-13T13:53:49.821Z,99042.97
2022-11-13T13:56:16.859Z,99030.63
2022-11-13T13:58:43.446Z,99036.78
2022-11-13T14:01:19.751Z,99037.59
2022-11-13T14:03:46.795Z,99037.16
2022-11-13T14:06:22.316Z,99027.59
2022-11-13T14:08:48.918Z,99033.66
2022-11-13T14:11:32.293Z,99029.56
2022-11-13T14:14:09.785Z,99025.38
2022-11-13T14:16:50.416Z,99029.25
2022-11-13T14:19:17.210Z,99021.22
2022-11-13T14:21:49.393Z,99024.84
2022-11-13T14:24:43.132Z,99025.63
2022-11-13T14:27:15.657Z,99022.81
2022-11-13T14:29:49.542Z,99004.75
2022-11-13T14:32:22.236Z,99002.34
2022-11-13T14:34:51.521Z,98994.97
2022-11-13T14:37:28.303Z,98987.41
2022-11-13T14:39:57.210Z,98981.66
2022-11-13T14:42:36.488Z,98979.97
2022-11-13T14:45:23.212Z,98977.41
2022-11-13T14:47:58.369Z,98980.91
2022-11-13T14:50:25.046Z,98979.97
2022-11-13T14:53:05.153Z,98975.34
2022-11-13T14:55:35.957Z,98976.38
2022-11-13T14:58:02.402Z,98962.75
2022-11-13T15:00:35.742Z,98974.75
2022-11-13T15:03:05.913Z,98964.69
2022-11-13T15:05:32.947Z,98971.50
2022-11-13T15:08:00.057Z,98970.09
2022-11-13T15:10:29.097Z,98967.69
2022-11-13T15:12:55.570Z,98965.31
2022-11-13T15:15:26.914Z,98971.16
2022-11-13T15:17:54.109Z,98970.53
2022-11-13T15:20:26.662Z,98973.78
2022-11-13T15:22:54.269Z,98966.16
2022-11-13T15:25:22.990Z,98982.16
2022-11-13T15:27:49.708Z,98974.34
2022-11-13T15:30:16.593Z,98967.91
2022-11-13T15:32:43.074Z,98982.84
2022-11-13T15:35:18.947Z,98979.63
2022-11-13T15:37:45.706Z,98981.81
2022-11-13T15:40:15.765Z,98980.66
2022-11-13T15:42:43.638Z,98979.06
2022-11-13T15:45:15.316Z,98984.84
2022-11-13T15:47:44.619Z,98990.41
2022-11-13T15:50:15.572Z,98986.38
2022-11-13T15:52:49.001Z,98988.31
2022-11-13T15:55:24.104Z,98988.25
2022-11-13T15:57:50.979Z,98992.75
2022-11-13T16:00:26.712Z,98999.06
2022-11-13T16:02:55.816Z,98993.81
2022-11-13T16:05:25.067Z,98992.53
2022-11-13T16:07:53.271Z,98994.97
2022-11-13T16:10:24.969Z,98995.03
2022-11-13T16:12:52.409Z,98994.75
2022-11-13T16:15:19.659Z,98990.63
2022-11-13T16:17:56.862Z,98993.06
2022-11-13T16:20:23.861Z,98988.06
2022-11-13T16:22:50.746Z,99001.16
2022-11-13T16:25:19.618Z,98994.31
2022-11-13T16:27:46.386Z,99000.06
2022-11-13T16:30:15.222Z,98995.19
2022-11-13T16:32:41.845Z,98996.97
2022-11-13T16:35:13.633Z,98994.97
2022-11-13T16:37:40.709Z,99002.94
2022-11-13T16:40:26.679Z,99010.03
2022-11-13T16:42:53.846Z,99011.22
2022-11-13T16:45:21.082Z,99005.41
2022-11-13T16:47:48.187Z,98999.56
2022-11-13T16:50:24.605Z,98999.50
2022-11-13T16:52:51.343Z,98998.81
2022-11-13T16:55:24.329Z,98998.41
2022-11-13T16:57:50.991Z,99000.06
2022-11-13T17:00:19.096Z,98998.16
2022-11-13T17:02:45.798Z,98996.06
2022-11-13T17:05:14.190Z,98991.00
2022-11-13T17:07:41.161Z,98985.28
2022-11-13T17:10:30.254Z,98977.63
2022-11-13T17:12:57.642Z,98983.72
2022-11-13T17:15:24.084Z,98986.00
2022-11-13T17:17:50.473Z,98982.09
2022-11-13T17:20:19.257Z,98984.53
2022-11-13T17:22:48.412Z,98986.22
2022-11-13T17:25:16.647Z,98984.16
2022-11-13T17:27:43.462Z,98994.09
2022-11-13T17:30:12.256Z,98988.75
2022-11-13T17:32:38.746Z,98995.47
2022-11-13T17:35:06.039Z,98993.13
2022-11-13T17:37:32.507Z,98991.19
2022-11-13T17:39:58.916Z,98991.44
2022-11-13T17:42:25.501Z,98993.41
2022-11-13T17:44:51.885Z,98991.44
2022-11-13T17:47:18.296Z,98997.75
2022-11-13T17:49:44.688Z,99003.94
2022-11-13T17:52:11.202Z,98993.94
2022-11-13T17:54:37.613Z,98993.13
2022-11-13T17:57:05.597Z,98990.78
2022-11-13T17:59:32.000Z,98991.59
2022-11-13T18:01:58.494Z,98997.03
2022-11-13T18:04:24.955Z,98984.44
2022-11-13T18:06:51.463Z,98976.94
2022-11-13T18:09:17.950Z,98981.53
2022-11-13T18:11:44.410Z,98983.16
2022-11-13T18:14:10.889Z,98983.59
2022-11-13T18:16:37.340Z,98980.72
2022-11-13T18:19:06.781Z,98980.88
2022-11-13T18:21:35.209Z,98983.00
2022-11-13T18:24:08.079Z,98985.69
2022-11-13T18:26:34.569Z,98983.16
2022-11-13T18:29:01.177Z,98984.34
2022-11-13T18:31:28.083Z,98980.47
2022-11-13T18:33:54.830Z,98968.72
2022-11-13T18:36:21.433Z,98971.97
2022-11-13T18:38:48.009Z,98967.16
2022-11-13T18:41:16.951Z,98965.59
2022-11-13T18:43:48.404Z,98962.41
2022-11-13T18:46:16.905Z,98964.69
2022-11-13T18:48:44.627Z,98971.84
2022-11-13T18:51:17.430Z,98961.53
2022-11-13T18:53:45.641Z,98956.06
2022-11-13T18:56:24.001Z,98959.13
2022-11-13T18:58:52.073Z,98950.75
2022-11-13T19:01:28.183Z,98956.91
2022-11-13T19:04:25.447Z,98946.41
2022-11-13T19:06:43.287Z,98948.63
2022-11-13T19:09:15.905Z,98946.53
2022-11-13T19:11:43.518Z,98939.09
2022-11-13T19:14:13.101Z,98944.59
2022-11-13T19:16:39.847Z,98943.19
2022-11-13T19:19:12.642Z,98946.59
2022-11-13T19:21:39.046Z,98939.84
2022-11-13T19:24:05.945Z,98946.03
2022-11-13T19:26:32.604Z,98934.75
2022-11-13T19:28:59.015Z,98938.47
2022-11-13T19:31:27.501Z,98938.19
2022-11-13T19:33:55.530Z,98930.59
2022-11-13T19:36:24.593Z,98931.72
2022-11-13T19:38:52.712Z,98934.00
2022-11-13T19:41:19.757Z,98928.81
2022-11-13T19:43:46.389Z,98933.22
2022-11-13T19:46:14.277Z,98924.34
2022-11-13T19:48:44.143Z,98920.66
2022-11-13T19:51:16.137Z,98920.34
2022-11-13T19:53:46.177Z,98924.84
2022-11-13T19:56:14.860Z,98921.16
2022-11-13T19:58:44.121Z,98917.47
2022-11-13T20:01:13.071Z,98918.59
2022-11-13T20:03:40.135Z,98916.50
2022-11-13T20:06:07.666Z,98923.09
2022-11-13T20:08:35.740Z,98913.75
2022-11-13T20:11:06.913Z,98903.78
2022-11-13T20:13:35.342Z,98910.53
2022-11-13T20:16:03.073Z,98906.03
2022-11-13T20:18:29.831Z,98911.53
2022-11-13T20:20:56.639Z,98904.13
2022-11-13T20:23:23.822Z,98903.31
2022-11-13T20:26:02.075Z,98905.72
2022-11-13T20:28:30.270Z,98897.84
2022-11-13T20:31:19.487Z,98899.44
2022-11-13T20:33:47.403Z,98892.69
2022-11-13T20:36:15.105Z,98893.63
2022-11-13T20:38:44.060Z,98888.81
2022-11-13T20:41:11.495Z,98883.66
2022-11-13T20:43:38.339Z,98885.91
2022-11-13T20:46:06.763Z,98887.84
2022-11-13T20:48:34.177Z,98886.41
2022-11-13T20:51:16.131Z,98892.50
2022-11-13T20:53:42.871Z,98888.66
2022-11-13T20:56:09.572Z,98898.28
2022-11-13T20:58:36.746Z,98908.44
2022-11-13T21:01:08.358Z,98891.03
2022-11-13T21:03:40.156Z,98906.34
2022-11-13T21:06:09.961Z,98905.22
2022-11-13T21:08:36.810Z,98902.97
2022-11-13T21:11:05.974Z,98898.28
2022-11-13T21:13:33.259Z,98895.03
2022-11-13T21:16:04.741Z,98900.97
2022-11-13T21:18:31.563Z,98893.75
2022-11-13T21:21:10.089Z,98891.97
2022-11-13T21:23:36.888Z,98887.16
2022-11-13T21:26:05.986Z,98888.59
2022-11-13T21:28:33.938Z,98879.91
2022-11-13T21:31:15.297Z,98878.78
2022-11-13T21:33:43.404Z,98864.94
2022-11-13T21:36:15.829Z,98864.78
2022-11-13T21:38:42.516Z,98868.47
2022-11-13T21:41:26.795Z,98854.97
2022-11-13T21:44:06.179Z,98856.91
2022-11-13T21:46:37.889Z,98855.13
2022-11-13T21:49:10.062Z,98851.56
2022-11-13T21:51:38.480Z,98841.13
2022-11-13T21:54:05.420Z,98842.06
2022-11-13T21:56:33.852Z,98844.03
2022-11-13T21:59:00.399Z,98838.38
2022-11-13T22:01:27.311Z,98840.78
2022-11-13T22:03:54.378Z,98837.75
2022-11-13T22:06:25.604Z,98828.06
2022-11-13T22:08:57.840Z,98831.94
2022-11-13T22:11:26.496Z,98831.44
2022-11-13T22:13:53.756Z,98815.84
2022-11-13T22:16:20.633Z,98826.28
2022-11-13T22:18:47.304Z,98834.00
2022-11-13T22:21:15.471Z,98826.28
2022-11-13T22:23:42.021Z,98824.19
2022-11-13T22:26:11.033Z,98828.53
2022-11-13T22:28:39.129Z,98829.78
2022-11-13T22:31:06.846Z,98824.31
2022-11-13T22:33:35.801Z,98814.78
2022-11-13T22:36:11.083Z,98826.38
2022-11-13T22:38:38.876Z,98822.47
2022-11-13T22:41:09.312Z,98819.44
2022-11-13T22:43:37.856Z,98823.00
2022-11-13T22:46:09.282Z,98812.38
2022-11-13T22:48:37.429Z,98816.50
2022-11-13T22:51:06.806Z,98809.09
2022-11-13T22:53:33.680Z,98814.09
2022-11-13T22:56:19.648Z,98814.72
2022-11-13T22:58:46.052Z,98817.25
2022-11-13T23:01:15.395Z,98813.22
2022-11-13T23:03:43.956Z,98811.78
2022-11-13T23:06:11.060Z,98810.66
2022-11-13T23:08:39.041Z,98815.66
2022-11-13T23:11:12.908Z,98808.69
2022-11-13T23:13:44.072Z,98802.91
2022-11-13T23:16:11.533Z,98806.88
2022-11-13T23:18:38.368Z,98804.31
2022-11-13T23:21:05.589Z,98798.19
2022-11-13T23:23:32.905Z,98798.81
2022-11-13T23:26:00.192Z,98794.47
2022-11-13T23:28:28.283Z,98791.28
2022-11-13T23:30:55.183Z,98776.19
2022-11-13T23:33:21.824Z,98779.50
2022-11-13T23:35:49.057Z,98779.16
2022-11-13T23:38:15.855Z,98771.44
2022-11-13T23:40:42.597Z,98772.88
2022-11-13T23:43:09.366Z,98778.31
2022-11-13T23:45:36.107Z,98776.84
2022-11-13T23:48:02.830Z,98770.91
2022-11-13T23:50:29.989Z,98765.16
2022-11-13T23:52:56.689Z,98759.72
2022-11-13T23:55:23.570Z,98766.75
2022-11-13T23:58:01.248Z,98765.13
